YYG weather

Charlottetown Airport
Charlottetown, Prince Edward Island, Canada

Public forecast

Using degrees Celsius for public forecast. Weather courtesy of forecast.io.

Current aviation weather report (METAR) for Charlottetown Airport

Report is more than 2 hours old.

Retrieved 2020/07/04 01:00 UTC (4 hours ago):

CYYG 040100Z 16006KT 15SM BKN260 15/13 A2998 RMK CI5 LAST STFD OBS/NEXT 040900 UTC SLP153

Aviation forecast (TAF) for Charlottetown Airport

Forecast is more than 6 hours old.

Retrieved 2020/07/03 20:00 UTC (9 hours ago):

TAF CYYG 031938Z 0320/0401 04008KT P6SM FEW030 BECMG 0322/0324 VRB03KT RMK NXT FCST WILL BE ISSUED AT 041045Z